sensor_id;sensor_type;location;lat;lon;timestamp;P1;durP1;ratioP1;P2;durP2;ratioP2
36547;SDS011;22551;52.206;4.856;2023-04-20T00:03:41;2.03;;;1.20;;
36547;SDS011;22551;52.206;4.856;2023-04-20T00:08:44;2.75;;;1.33;;
36547;SDS011;22551;52.206;4.856;2023-04-20T00:13:47;2.88;;;1.60;;
36547;SDS011;22551;52.206;4.856;2023-04-20T00:18:49;1.63;;;1.42;;
36547;SDS011;22551;52.206;4.856;2023-04-20T00:23:51;2.78;;;1.40;;
36547;SDS011;22551;52.206;4.856;2023-04-20T00:28:55;4.05;;;1.35;;
36547;SDS011;22551;52.206;4.856;2023-04-20T00:33:57;2.17;;;1.20;;
36547;SDS011;22551;52.206;4.856;2023-04-20T00:38:59;4.68;;;1.50;;
36547;SDS011;22551;52.206;4.856;2023-04-20T00:44:05;3.38;;;1.33;;
36547;SDS011;22551;52.206;4.856;2023-04-20T00:49:10;3.30;;;1.70;;
36547;SDS011;22551;52.206;4.856;2023-04-20T00:54:12;4.72;;;1.65;;
36547;SDS011;22551;52.206;4.856;2023-04-20T00:59:16;2.88;;;1.30;;
36547;SDS011;22551;52.206;4.856;2023-04-20T01:04:18;1.83;;;1.30;;
36547;SDS011;22551;52.206;4.856;2023-04-20T01:09:20;2.90;;;1.70;;
36547;SDS011;22551;52.206;4.856;2023-04-20T01:14:24;6.57;;;2.05;;
36547;SDS011;22551;52.206;4.856;2023-04-20T01:19:26;5.20;;;1.75;;
36547;SDS011;22551;52.206;4.856;2023-04-20T01:24:30;2.33;;;1.45;;
36547;SDS011;22551;52.206;4.856;2023-04-20T01:29:32;3.83;;;2.10;;
36547;SDS011;22551;52.206;4.856;2023-04-20T01:34:35;4.65;;;1.52;;
36547;SDS011;22551;52.206;4.856;2023-04-20T01:39:38;3.50;;;1.98;;
36547;SDS011;22551;52.206;4.856;2023-04-20T01:44:42;4.07;;;2.08;;
36547;SDS011;22551;52.206;4.856;2023-04-20T01:49:45;4.28;;;2.22;;
36547;SDS011;22551;52.206;4.856;2023-04-20T01:54:48;5.40;;;2.25;;
36547;SDS011;22551;52.206;4.856;2023-04-20T01:59:50;5.63;;;2.53;;
36547;SDS011;22551;52.206;4.856;2023-04-20T02:04:53;5.47;;;2.45;;
36547;SDS011;22551;52.206;4.856;2023-04-20T02:09:56;4.50;;;2.45;;
36547;SDS011;22551;52.206;4.856;2023-04-20T02:14:59;4.07;;;2.00;;
36547;SDS011;22551;52.206;4.856;2023-04-20T02:20:01;5.18;;;2.55;;
36547;SDS011;22551;52.206;4.856;2023-04-20T02:25:06;4.18;;;2.00;;
36547;SDS011;22551;52.206;4.856;2023-04-20T02:30:10;4.87;;;2.70;;
36547;SDS011;22551;52.206;4.856;2023-04-20T02:35:13;4.82;;;2.78;;
36547;SDS011;22551;52.206;4.856;2023-04-20T02:40:16;6.32;;;3.00;;
36547;SDS011;22551;52.206;4.856;2023-04-20T02:45:19;4.75;;;2.65;;
36547;SDS011;22551;52.206;4.856;2023-04-20T02:50:21;4.70;;;3.20;;
36547;SDS011;22551;52.206;4.856;2023-04-20T02:55:24;5.85;;;3.50;;
36547;SDS011;22551;52.206;4.856;2023-04-20T03:00:27;5.72;;;1.95;;
36547;SDS011;22551;52.206;4.856;2023-04-20T03:05:29;3.83;;;2.08;;
36547;SDS011;22551;52.206;4.856;2023-04-20T03:10:32;4.00;;;2.38;;
36547;SDS011;22551;52.206;4.856;2023-04-20T03:15:35;5.88;;;2.13;;
36547;SDS011;22551;52.206;4.856;2023-04-20T03:20:37;4.32;;;2.50;;
36547;SDS011;22551;52.206;4.856;2023-04-20T03:25:40;5.72;;;2.13;;
36547;SDS011;22551;52.206;4.856;2023-04-20T03:30:43;5.00;;;2.10;;
36547;SDS011;22551;52.206;4.856;2023-04-20T03:35:45;10.02;;;2.40;;
36547;SDS011;22551;52.206;4.856;2023-04-20T03:40:49;3.53;;;1.90;;
36547;SDS011;22551;52.206;4.856;2023-04-20T03:45:51;7.80;;;1.80;;
36547;SDS011;22551;52.206;4.856;2023-04-20T03:50:53;7.40;;;2.17;;
36547;SDS011;22551;52.206;4.856;2023-04-20T03:55:57;3.60;;;1.83;;
36547;SDS011;22551;52.206;4.856;2023-04-20T04:01:01;5.20;;;1.92;;
36547;SDS011;22551;52.206;4.856;2023-04-20T04:06:06;3.75;;;1.35;;
36547;SDS011;22551;52.206;4.856;2023-04-20T04:11:11;4.32;;;1.75;;
36547;SDS011;22551;52.206;4.856;2023-04-20T04:16:13;6.40;;;1.50;;
36547;SDS011;22551;52.206;4.856;2023-04-20T04:21:15;2.67;;;1.30;;
36547;SDS011;22551;52.206;4.856;2023-04-20T04:26:19;3.97;;;1.60;;
36547;SDS011;22551;52.206;4.856;2023-04-20T04:31:23;2.45;;;1.15;;
36547;SDS011;22551;52.206;4.856;2023-04-20T04:36:26;4.88;;;1.73;;
36547;SDS011;22551;52.206;4.856;2023-04-20T04:41:30;3.20;;;1.52;;
36547;SDS011;22551;52.206;4.856;2023-04-20T04:46:32;7.10;;;1.30;;
36547;SDS011;22551;52.206;4.856;2023-04-20T04:51:35;3.05;;;0.98;;
36547;SDS011;22551;52.206;4.856;2023-04-20T04:56:39;3.72;;;1.08;;
36547;SDS011;22551;52.206;4.856;2023-04-20T05:01:41;3.42;;;1.20;;
36547;SDS011;22551;52.206;4.856;2023-04-20T05:06:43;3.15;;;1.67;;
36547;SDS011;22551;52.206;4.856;2023-04-20T05:11:47;2.28;;;0.95;;
36547;SDS011;22551;52.206;4.856;2023-04-20T05:16:49;4.32;;;1.40;;
36547;SDS011;22551;52.206;4.856;2023-04-20T05:21:52;5.45;;;1.23;;
36547;SDS011;22551;52.206;4.856;2023-04-20T05:26:55;3.30;;;1.27;;
36547;SDS011;22551;52.206;4.856;2023-04-20T05:31:57;3.88;;;1.23;;
36547;SDS011;22551;52.206;4.856;2023-04-20T05:37:00;2.67;;;1.40;;
36547;SDS011;22551;52.206;4.856;2023-04-20T05:42:05;1.65;;;1.20;;
36547;SDS011;22551;52.206;4.856;2023-04-20T05:47:08;9.35;;;1.90;;
36547;SDS011;22551;52.206;4.856;2023-04-20T05:52:10;1.95;;;1.58;;
36547;SDS011;22551;52.206;4.856;2023-04-20T05:57:13;3.72;;;1.35;;
36547;SDS011;22551;52.206;4.856;2023-04-20T06:02:16;4.18;;;1.35;;
36547;SDS011;22551;52.206;4.856;2023-04-20T06:07:18;5.68;;;1.30;;
36547;SDS011;22551;52.206;4.856;2023-04-20T06:12:21;5.90;;;2.17;;
36547;SDS011;22551;52.206;4.856;2023-04-20T06:17:24;4.18;;;2.28;;
36547;SDS011;22551;52.206;4.856;2023-04-20T06:22:26;3.88;;;1.63;;
36547;SDS011;22551;52.206;4.856;2023-04-20T06:27:29;3.30;;;1.83;;
36547;SDS011;22551;52.206;4.856;2023-04-20T06:32:31;6.32;;;1.85;;
36547;SDS011;22551;52.206;4.856;2023-04-20T06:37:34;2.80;;;1.25;;
36547;SDS011;22551;52.206;4.856;2023-04-20T06:42:37;2.40;;;1.70;;
36547;SDS011;22551;52.206;4.856;2023-04-20T06:47:40;7.78;;;1.77;;
36547;SDS011;22551;52.206;4.856;2023-04-20T06:52:42;3.22;;;1.42;;
36547;SDS011;22551;52.206;4.856;2023-04-20T06:57:45;6.28;;;1.88;;
36547;SDS011;22551;52.206;4.856;2023-04-20T07:02:48;3.97;;;1.80;;
36547;SDS011;22551;52.206;4.856;2023-04-20T07:07:51;4.60;;;1.70;;
36547;SDS011;22551;52.206;4.856;2023-04-20T07:12:54;6.20;;;1.83;;
36547;SDS011;22551;52.206;4.856;2023-04-20T07:17:57;2.53;;;1.60;;
36547;SDS011;22551;52.206;4.856;2023-04-20T07:23:00;6.47;;;1.63;;
36547;SDS011;22551;52.206;4.856;2023-04-20T07:28:03;2.97;;;1.55;;
36547;SDS011;22551;52.206;4.856;2023-04-20T07:33:05;3.25;;;1.65;;
36547;SDS011;22551;52.206;4.856;2023-04-20T07:38:10;2.78;;;1.80;;
36547;SDS011;22551;52.206;4.856;2023-04-20T07:43:13;5.00;;;2.30;;
36547;SDS011;22551;52.206;4.856;2023-04-20T07:48:15;3.45;;;1.98;;
36547;SDS011;22551;52.206;4.856;2023-04-20T07:53:18;3.42;;;1.90;;
36547;SDS011;22551;52.206;4.856;2023-04-20T07:58:21;5.32;;;1.63;;
36547;SDS011;22551;52.206;4.856;2023-04-20T08:03:24;4.45;;;2.47;;
36547;SDS011;22551;52.206;4.856;2023-04-20T08:08:26;4.68;;;2.25;;
36547;SDS011;22551;52.206;4.856;2023-04-20T08:13:29;5.28;;;2.00;;
36547;SDS011;22551;52.206;4.856;2023-04-20T08:18:31;5.88;;;2.10;;
36547;SDS011;22551;52.206;4.856;2023-04-20T08:23:34;5.97;;;2.13;;
36547;SDS011;22551;52.206;4.856;2023-04-20T08:28:37;7.40;;;2.97;;
36547;SDS011;22551;52.206;4.856;2023-04-20T08:33:39;9.77;;;2.90;;
36547;SDS011;22551;52.206;4.856;2023-04-20T08:38:41;4.47;;;2.22;;
36547;SDS011;22551;52.206;4.856;2023-04-20T08:43:45;5.65;;;2.33;;
36547;SDS011;22551;52.206;4.856;2023-04-20T08:48:49;4.93;;;2.67;;
36547;SDS011;22551;52.206;4.856;2023-04-20T08:53:54;4.40;;;2.97;;
36547;SDS011;22551;52.206;4.856;2023-04-20T08:58:58;8.10;;;2.83;;
36547;SDS011;22551;52.206;4.856;2023-04-20T09:04:13;6.18;;;2.22;;
36547;SDS011;22551;52.206;4.856;2023-04-20T09:09:17;4.35;;;2.78;;
36547;SDS011;22551;52.206;4.856;2023-04-20T09:14:22;4.40;;;2.70;;
36547;SDS011;22551;52.206;4.856;2023-04-20T09:19:24;5.57;;;2.65;;
36547;SDS011;22551;52.206;4.856;2023-04-20T09:24:29;4.60;;;2.90;;
36547;SDS011;22551;52.206;4.856;2023-04-20T09:29:34;6.57;;;2.80;;
36547;SDS011;22551;52.206;4.856;2023-04-20T09:34:41;4.82;;;3.20;;
36547;SDS011;22551;52.206;4.856;2023-04-20T09:39:44;5.28;;;3.30;;
36547;SDS011;22551;52.206;4.856;2023-04-20T09:44:48;9.45;;;3.60;;
36547;SDS011;22551;52.206;4.856;2023-04-20T09:49:51;5.28;;;3.47;;
36547;SDS011;22551;52.206;4.856;2023-04-20T09:54:55;10.45;;;3.55;;
36547;SDS011;22551;52.206;4.856;2023-04-20T09:59:59;11.73;;;4.22;;
36547;SDS011;22551;52.206;4.856;2023-04-20T10:05:06;7.90;;;3.97;;
36547;SDS011;22551;52.206;4.856;2023-04-20T10:10:09;6.32;;;3.25;;
36547;SDS011;22551;52.206;4.856;2023-04-20T10:15:14;5.18;;;2.70;;
36547;SDS011;22551;52.206;4.856;2023-04-20T10:20:19;4.80;;;3.22;;
36547;SDS011;22551;52.206;4.856;2023-04-20T10:25:23;5.35;;;2.97;;
36547;SDS011;22551;52.206;4.856;2023-04-20T10:30:28;8.45;;;3.40;;
36547;SDS011;22551;52.206;4.856;2023-04-20T10:35:41;7.50;;;3.72;;
36547;SDS011;22551;52.206;4.856;2023-04-20T10:40:47;5.57;;;2.90;;
36547;SDS011;22551;52.206;4.856;2023-04-20T10:45:51;6.28;;;2.72;;
36547;SDS011;22551;52.206;4.856;2023-04-20T10:50:53;6.50;;;4.18;;
36547;SDS011;22551;52.206;4.856;2023-04-20T10:55:59;5.60;;;3.40;;
36547;SDS011;22551;52.206;4.856;2023-04-20T11:01:06;6.53;;;3.50;;
36547;SDS011;22551;52.206;4.856;2023-04-20T11:06:08;6.05;;;3.75;;
36547;SDS011;22551;52.206;4.856;2023-04-20T11:11:17;7.05;;;3.50;;
36547;SDS011;22551;52.206;4.856;2023-04-20T11:16:22;9.25;;;3.97;;
36547;SDS011;22551;52.206;4.856;2023-04-20T11:21:33;5.30;;;3.38;;
36547;SDS011;22551;52.206;4.856;2023-04-20T11:26:37;6.07;;;3.25;;
36547;SDS011;22551;52.206;4.856;2023-04-20T11:31:42;6.80;;;3.60;;
36547;SDS011;22551;52.206;4.856;2023-04-20T11:36:51;7.30;;;3.33;;
36547;SDS011;22551;52.206;4.856;2023-04-20T11:41:55;5.33;;;4.20;;
36547;SDS011;22551;52.206;4.856;2023-04-20T11:46:59;12.18;;;4.00;;
36547;SDS011;22551;52.206;4.856;2023-04-20T11:52:03;4.72;;;3.13;;
36547;SDS011;22551;52.206;4.856;2023-04-20T11:57:05;3.90;;;3.15;;
36547;SDS011;22551;52.206;4.856;2023-04-20T12:02:09;4.95;;;3.33;;
36547;SDS011;22551;52.206;4.856;2023-04-20T12:07:11;9.40;;;3.35;;
36547;SDS011;22551;52.206;4.856;2023-04-20T12:12:14;7.57;;;3.92;;
36547;SDS011;22551;52.206;4.856;2023-04-20T12:17:20;10.70;;;4.03;;
36547;SDS011;22551;52.206;4.856;2023-04-20T12:22:22;6.53;;;3.88;;
36547;SDS011;22551;52.206;4.856;2023-04-20T12:27:25;6.88;;;3.47;;
36547;SDS011;22551;52.206;4.856;2023-04-20T12:32:38;5.43;;;3.55;;
36547;SDS011;22551;52.206;4.856;2023-04-20T12:37:40;6.95;;;4.13;;
36547;SDS011;22551;52.206;4.856;2023-04-20T12:42:43;8.95;;;4.20;;
36547;SDS011;22551;52.206;4.856;2023-04-20T12:47:47;6.00;;;3.30;;
36547;SDS011;22551;52.206;4.856;2023-04-20T12:52:49;7.25;;;4.32;;
36547;SDS011;22551;52.206;4.856;2023-04-20T12:57:52;8.70;;;4.93;;
36547;SDS011;22551;52.206;4.856;2023-04-20T13:03:01;6.82;;;4.20;;
36547;SDS011;22551;52.206;4.856;2023-04-20T13:08:03;8.05;;;4.22;;
36547;SDS011;22551;52.206;4.856;2023-04-20T13:13:06;10.15;;;4.47;;
36547;SDS011;22551;52.206;4.856;2023-04-20T13:18:10;7.65;;;4.05;;
36547;SDS011;22551;52.206;4.856;2023-04-20T13:23:14;7.57;;;4.45;;
36547;SDS011;22551;52.206;4.856;2023-04-20T13:28:16;6.88;;;4.20;;
36547;SDS011;22551;52.206;4.856;2023-04-20T13:33:20;7.10;;;4.00;;
36547;SDS011;22551;52.206;4.856;2023-04-20T13:38:22;6.60;;;3.67;;
36547;SDS011;22551;52.206;4.856;2023-04-20T13:43:25;6.28;;;3.95;;
36547;SDS011;22551;52.206;4.856;2023-04-20T13:48:28;7.57;;;4.03;;
36547;SDS011;22551;52.206;4.856;2023-04-20T13:53:31;12.75;;;4.30;;
36547;SDS011;22551;52.206;4.856;2023-04-20T13:58:33;6.50;;;4.03;;
36547;SDS011;22551;52.206;4.856;2023-04-20T14:03:37;10.30;;;4.10;;
36547;SDS011;22551;52.206;4.856;2023-04-20T14:08:40;8.70;;;4.53;;
36547;SDS011;22551;52.206;4.856;2023-04-20T14:13:42;9.45;;;4.30;;
36547;SDS011;22551;52.206;4.856;2023-04-20T14:18:46;9.07;;;3.90;;
36547;SDS011;22551;52.206;4.856;2023-04-20T14:23:48;5.28;;;3.42;;
36547;SDS011;22551;52.206;4.856;2023-04-20T14:28:53;7.15;;;3.70;;
36547;SDS011;22551;52.206;4.856;2023-04-20T14:33:56;5.93;;;4.05;;
36547;SDS011;22551;52.206;4.856;2023-04-20T14:38:58;6.95;;;3.63;;
36547;SDS011;22551;52.206;4.856;2023-04-20T14:44:01;7.05;;;3.58;;
36547;SDS011;22551;52.206;4.856;2023-04-20T14:49:05;6.53;;;4.03;;
36547;SDS011;22551;52.206;4.856;2023-04-20T14:54:07;4.68;;;3.15;;
36547;SDS011;22551;52.206;4.856;2023-04-20T14:59:10;5.93;;;3.60;;
36547;SDS011;22551;52.206;4.856;2023-04-20T15:04:14;8.00;;;3.53;;
36547;SDS011;22551;52.206;4.856;2023-04-20T15:09:16;6.22;;;3.47;;
36547;SDS011;22551;52.206;4.856;2023-04-20T15:14:19;4.90;;;3.05;;
36547;SDS011;22551;52.206;4.856;2023-04-20T15:19:22;8.43;;;3.05;;
36547;SDS011;22551;52.206;4.856;2023-04-20T15:24:24;4.25;;;2.88;;
36547;SDS011;22551;52.206;4.856;2023-04-20T15:29:27;6.32;;;4.13;;
36547;SDS011;22551;52.206;4.856;2023-04-20T15:34:30;7.15;;;3.35;;
36547;SDS011;22551;52.206;4.856;2023-04-20T15:39:38;7.65;;;3.50;;
36547;SDS011;22551;52.206;4.856;2023-04-20T15:44:40;4.90;;;3.40;;
36547;SDS011;22551;52.206;4.856;2023-04-20T15:49:44;3.80;;;2.78;;
36547;SDS011;22551;52.206;4.856;2023-04-20T15:54:46;6.30;;;3.55;;
36547;SDS011;22551;52.206;4.856;2023-04-20T15:59:48;6.97;;;3.55;;
36547;SDS011;22551;52.206;4.856;2023-04-20T16:04:54;7.00;;;3.80;;
36547;SDS011;22551;52.206;4.856;2023-04-20T16:09:56;5.50;;;3.28;;
36547;SDS011;22551;52.206;4.856;2023-04-20T16:14:59;8.13;;;3.45;;
36547;SDS011;22551;52.206;4.856;2023-04-20T16:20:06;6.50;;;4.18;;
36547;SDS011;22551;52.206;4.856;2023-04-20T16:25:09;7.55;;;3.53;;
36547;SDS011;22551;52.206;4.856;2023-04-20T16:30:21;6.50;;;3.55;;
36547;SDS011;22551;52.206;4.856;2023-04-20T16:35:27;6.03;;;3.38;;
36547;SDS011;22551;52.206;4.856;2023-04-20T16:40:30;7.50;;;3.33;;
36547;SDS011;22551;52.206;4.856;2023-04-20T16:45:32;5.43;;;3.65;;
36547;SDS011;22551;52.206;4.856;2023-04-20T16:50:39;5.00;;;3.30;;
36547;SDS011;22551;52.206;4.856;2023-04-20T16:55:41;6.25;;;3.38;;
36547;SDS011;22551;52.206;4.856;2023-04-20T17:00:44;6.32;;;3.20;;
36547;SDS011;22551;52.206;4.856;2023-04-20T17:05:47;7.72;;;3.80;;
36547;SDS011;22551;52.206;4.856;2023-04-20T17:10:49;5.75;;;3.38;;
36547;SDS011;22551;52.206;4.856;2023-04-20T17:15:52;6.50;;;3.33;;
36547;SDS011;22551;52.206;4.856;2023-04-20T17:20:56;5.93;;;3.72;;
36547;SDS011;22551;52.206;4.856;2023-04-20T17:25:59;6.32;;;3.58;;
36547;SDS011;22551;52.206;4.856;2023-04-20T17:31:01;6.13;;;3.40;;
36547;SDS011;22551;52.206;4.856;2023-04-20T17:36:05;7.25;;;3.00;;
36547;SDS011;22551;52.206;4.856;2023-04-20T17:41:08;4.75;;;3.15;;
36547;SDS011;22551;52.206;4.856;2023-04-20T17:46:16;7.60;;;3.65;;
36547;SDS011;22551;52.206;4.856;2023-04-20T17:51:19;7.55;;;3.58;;
36547;SDS011;22551;52.206;4.856;2023-04-20T17:56:21;5.95;;;3.60;;
36547;SDS011;22551;52.206;4.856;2023-04-20T18:01:24;5.68;;;3.70;;
36547;SDS011;22551;52.206;4.856;2023-04-20T18:06:28;5.45;;;3.45;;
36547;SDS011;22551;52.206;4.856;2023-04-20T18:11:30;5.47;;;3.75;;
36547;SDS011;22551;52.206;4.856;2023-04-20T18:16:32;5.28;;;3.60;;
36547;SDS011;22551;52.206;4.856;2023-04-20T18:21:36;5.85;;;3.67;;
36547;SDS011;22551;52.206;4.856;2023-04-20T18:26:38;4.63;;;3.28;;
36547;SDS011;22551;52.206;4.856;2023-04-20T18:31:43;7.75;;;4.28;;
36547;SDS011;22551;52.206;4.856;2023-04-20T18:36:47;7.18;;;3.35;;
36547;SDS011;22551;52.206;4.856;2023-04-20T18:41:51;7.57;;;3.92;;
36547;SDS011;22551;52.206;4.856;2023-04-20T18:46:53;5.55;;;3.38;;
36547;SDS011;22551;52.206;4.856;2023-04-20T18:51:56;7.72;;;3.40;;
36547;SDS011;22551;52.206;4.856;2023-04-20T18:56:59;4.20;;;3.27;;
36547;SDS011;22551;52.206;4.856;2023-04-20T19:02:02;6.50;;;3.60;;
36547;SDS011;22551;52.206;4.856;2023-04-20T19:07:05;6.93;;;3.95;;
36547;SDS011;22551;52.206;4.856;2023-04-20T19:12:08;5.80;;;3.50;;
36547;SDS011;22551;52.206;4.856;2023-04-20T19:17:10;6.25;;;3.53;;
36547;SDS011;22551;52.206;4.856;2023-04-20T19:22:13;4.20;;;3.50;;
36547;SDS011;22551;52.206;4.856;2023-04-20T19:27:15;6.00;;;3.60;;
36547;SDS011;22551;52.206;4.856;2023-04-20T19:32:18;5.97;;;3.78;;
36547;SDS011;22551;52.206;4.856;2023-04-20T19:37:21;5.10;;;3.42;;
36547;SDS011;22551;52.206;4.856;2023-04-20T19:42:24;6.93;;;3.40;;
36547;SDS011;22551;52.206;4.856;2023-04-20T19:47:26;10.38;;;4.75;;
36547;SDS011;22551;52.206;4.856;2023-04-20T19:52:30;11.32;;;4.88;;
36547;SDS011;22551;52.206;4.856;2023-04-20T19:57:33;7.28;;;4.68;;
36547;SDS011;22551;52.206;4.856;2023-04-20T20:02:35;7.25;;;3.95;;
36547;SDS011;22551;52.206;4.856;2023-04-20T20:07:40;7.22;;;4.65;;
36547;SDS011;22551;52.206;4.856;2023-04-20T20:12:43;9.43;;;5.00;;
36547;SDS011;22551;52.206;4.856;2023-04-20T20:17:45;9.77;;;4.50;;
36547;SDS011;22551;52.206;4.856;2023-04-20T20:22:48;7.28;;;4.85;;
36547;SDS011;22551;52.206;4.856;2023-04-20T20:27:51;7.40;;;4.57;;
36547;SDS011;22551;52.206;4.856;2023-04-20T20:32:53;9.60;;;4.88;;
36547;SDS011;22551;52.206;4.856;2023-04-20T20:37:59;7.07;;;4.63;;
36547;SDS011;22551;52.206;4.856;2023-04-20T20:43:05;6.60;;;4.43;;
36547;SDS011;22551;52.206;4.856;2023-04-20T20:48:09;6.57;;;4.23;;
36547;SDS011;22551;52.206;4.856;2023-04-20T20:53:13;9.15;;;5.03;;
36547;SDS011;22551;52.206;4.856;2023-04-20T20:58:16;8.20;;;5.13;;
36547;SDS011;22551;52.206;4.856;2023-04-20T21:03:19;7.88;;;5.45;;
36547;SDS011;22551;52.206;4.856;2023-04-20T21:08:24;7.80;;;5.50;;
36547;SDS011;22551;52.206;4.856;2023-04-20T21:13:26;8.30;;;5.20;;
36547;SDS011;22551;52.206;4.856;2023-04-20T21:18:29;9.65;;;5.53;;
36547;SDS011;22551;52.206;4.856;2023-04-20T21:23:32;11.55;;;6.55;;
36547;SDS011;22551;52.206;4.856;2023-04-20T21:28:35;14.25;;;5.93;;
36547;SDS011;22551;52.206;4.856;2023-04-20T21:33:37;10.23;;;6.45;;
36547;SDS011;22551;52.206;4.856;2023-04-20T21:38:40;10.82;;;6.05;;
36547;SDS011;22551;52.206;4.856;2023-04-20T21:43:42;10.30;;;5.97;;
36547;SDS011;22551;52.206;4.856;2023-04-20T21:48:45;9.38;;;6.07;;
36547;SDS011;22551;52.206;4.856;2023-04-20T21:53:48;9.98;;;6.25;;
36547;SDS011;22551;52.206;4.856;2023-04-20T21:58:51;10.30;;;6.45;;
36547;SDS011;22551;52.206;4.856;2023-04-20T22:03:53;10.25;;;6.63;;
36547;SDS011;22551;52.206;4.856;2023-04-20T22:08:57;10.38;;;6.05;;
36547;SDS011;22551;52.206;4.856;2023-04-20T22:14:00;9.20;;;5.90;;
36547;SDS011;22551;52.206;4.856;2023-04-20T22:19:02;9.25;;;6.00;;
36547;SDS011;22551;52.206;4.856;2023-04-20T22:24:06;12.13;;;6.88;;
36547;SDS011;22551;52.206;4.856;2023-04-20T22:29:08;12.88;;;5.75;;
36547;SDS011;22551;52.206;4.856;2023-04-20T22:34:11;9.32;;;5.13;;
36547;SDS011;22551;52.206;4.856;2023-04-20T22:39:15;12.50;;;6.15;;
36547;SDS011;22551;52.206;4.856;2023-04-20T22:44:17;13.55;;;6.00;;
36547;SDS011;22551;52.206;4.856;2023-04-20T22:49:19;10.82;;;6.35;;
36547;SDS011;22551;52.206;4.856;2023-04-20T22:54:23;11.07;;;6.03;;
36547;SDS011;22551;52.206;4.856;2023-04-20T22:59:25;13.00;;;6.80;;
36547;SDS011;22551;52.206;4.856;2023-04-20T23:04:27;11.80;;;6.65;;
36547;SDS011;22551;52.206;4.856;2023-04-20T23:09:31;16.90;;;7.30;;
36547;SDS011;22551;52.206;4.856;2023-04-20T23:14:38;13.98;;;7.65;;
36547;SDS011;22551;52.206;4.856;2023-04-20T23:19:42;12.65;;;7.47;;
36547;SDS011;22551;52.206;4.856;2023-04-20T23:24:46;17.40;;;7.38;;
36547;SDS011;22551;52.206;4.856;2023-04-20T23:29:48;16.20;;;7.63;;
36547;SDS011;22551;52.206;4.856;2023-04-20T23:34:51;17.65;;;7.60;;
36547;SDS011;22551;52.206;4.856;2023-04-20T23:39:54;17.00;;;7.80;;
36547;SDS011;22551;52.206;4.856;2023-04-20T23:44:56;16.20;;;8.27;;
36547;SDS011;22551;52.206;4.856;2023-04-20T23:49:59;17.38;;;8.30;;
36547;SDS011;22551;52.206;4.856;2023-04-20T23:55:02;15.25;;;7.97;;
